< < Back
Terminal Aerodrome Forecast


Current Version              Previous Versions:   1  2  3  4  5  6  7  8  9  

Terminal Aerodrome Forecast

704
FTUS42 KGSP 011100
TAFHKY
TAF
KHKY 011120Z 0112/0212 31004KT P6SM SKC
     FM011500 22005KT P6SM FEW050
     FM020300 00000KT P6SM FEW250
     FM021000 00000KT 5SM BR FEW250=

Latest METAR

896
SAUS70 KWBC 011600 RRR
MTRHKY
METAR KHKY 011553Z VRB03KT 10SM CLR 25/14 A3004 RMK AO2 SLP152
T02500144


USA.gov is the U.S. government's official web portal to all federal, state and local government web resources and services.